createdAt,value
2023-04-20T00:01:48.366Z,17.90
2023-04-20T00:04:17.590Z,20.70
2023-04-20T00:06:46.660Z,22.90
2023-04-20T00:09:15.799Z,17.20
2023-04-20T00:11:44.565Z,22.00
2023-04-20T00:14:13.149Z,19.60
2023-04-20T00:16:41.517Z,21.00
2023-04-20T00:19:10.441Z,20.30
2023-04-20T00:21:38.651Z,19.90
2023-04-20T00:24:07.708Z,22.80
2023-04-20T00:26:36.058Z,21.60
2023-04-20T00:29:04.472Z,18.50
2023-04-20T00:31:32.843Z,14.40
2023-04-20T00:34:01.125Z,18.80
2023-04-20T00:36:29.583Z,22.50
2023-04-20T00:38:58.490Z,20.90
2023-04-20T00:41:26.839Z,24.10
2023-04-20T00:43:55.495Z,14.60
2023-04-20T00:46:24.186Z,16.60
2023-04-20T00:48:53.389Z,19.90
2023-04-20T00:51:22.531Z,18.70
2023-04-20T00:53:51.056Z,16.10
2023-04-20T00:56:20.894Z,26.50
2023-04-20T00:58:49.378Z,21.20
2023-04-20T01:01:17.955Z,15.70
2023-04-20T01:03:46.920Z,17.40
2023-04-20T01:06:15.769Z,21.10
2023-04-20T01:08:48.687Z,19.30
2023-04-20T01:11:17.593Z,16.70
2023-04-20T01:13:46.111Z,20.10
2023-04-20T01:16:14.437Z,16.80
2023-04-20T01:18:44.273Z,24.50
2023-04-20T01:21:13.171Z,18.30
2023-04-20T01:23:43.272Z,16.00
2023-04-20T01:26:13.216Z,18.40
2023-04-20T01:28:41.430Z,22.00
2023-04-20T01:31:10.627Z,18.40
2023-04-20T01:33:39.377Z,17.60
2023-04-20T01:36:09.409Z,25.80
2023-04-20T01:38:38.142Z,16.90
2023-04-20T01:41:08.454Z,20.20
2023-04-20T01:43:37.893Z,20.60
2023-04-20T01:46:07.013Z,21.30
2023-04-20T01:48:35.433Z,23.00
2023-04-20T01:51:03.954Z,28.10
2023-04-20T01:53:32.416Z,26.30
2023-04-20T01:56:00.737Z,23.60
2023-04-20T01:58:29.359Z,21.30
2023-04-20T02:00:57.776Z,21.00
2023-04-20T02:03:26.264Z,22.50
2023-04-20T02:05:54.709Z,19.60
2023-04-20T02:08:23.433Z,21.40
2023-04-20T02:10:51.930Z,10.50
2023-04-20T02:13:20.866Z,19.20
2023-04-20T02:15:49.516Z,20.70
2023-04-20T02:18:17.906Z,16.30
2023-04-20T02:20:46.349Z,10.90
2023-04-20T02:23:15.036Z,21.00
2023-04-20T02:25:43.444Z,19.30
2023-04-20T02:28:11.796Z,18.60
2023-04-20T02:30:40.227Z,19.10
2023-04-20T02:33:08.792Z,19.20
2023-04-20T02:35:37.150Z,11.00
2023-04-20T02:38:05.473Z,15.90
2023-04-20T02:40:34.174Z,17.80
2023-04-20T02:43:02.457Z,15.40
2023-04-20T02:45:32.020Z,16.20
2023-04-20T02:48:00.412Z,21.30
2023-04-20T02:50:28.951Z,17.00
2023-04-20T02:52:59.064Z,17.00
2023-04-20T02:55:27.311Z,11.90
2023-04-20T02:57:55.549Z,16.30
2023-04-20T03:00:24.218Z,16.20
2023-04-20T03:02:52.792Z,16.70
2023-04-20T03:05:22.579Z,18.20
2023-04-20T03:07:50.854Z,17.30
2023-04-20T03:10:19.274Z,18.50
2023-04-20T03:12:47.599Z,20.10
2023-04-20T03:15:16.509Z,18.10
2023-04-20T03:17:44.807Z,16.90
2023-04-20T03:20:14.607Z,13.30
2023-04-20T03:22:43.225Z,17.20
2023-04-20T03:25:14.688Z,16.90
2023-04-20T03:27:45.504Z,17.70
2023-04-20T03:30:14.321Z,20.80
2023-04-20T03:32:42.707Z,13.90
2023-04-20T03:35:11.459Z,21.00
2023-04-20T03:37:39.849Z,12.40
2023-04-20T03:40:10.500Z,19.50
2023-04-20T03:42:38.988Z,20.00
2023-04-20T03:45:08.981Z,19.40
2023-04-20T03:47:37.263Z,13.10
2023-04-20T03:50:07.533Z,17.80
2023-04-20T03:52:35.843Z,18.70
2023-04-20T03:55:05.181Z,25.90
2023-04-20T03:57:33.827Z,18.20
2023-04-20T04:00:02.674Z,17.20
2023-04-20T04:02:31.332Z,22.70
2023-04-20T04:05:00.212Z,20.40
2023-04-20T04:07:28.742Z,23.40
2023-04-20T04:09:57.147Z,15.30
2023-04-20T04:12:25.644Z,19.30
2023-04-20T04:14:54.041Z,18.30
2023-04-20T04:17:22.397Z,24.50
2023-04-20T04:19:50.843Z,9.90
2023-04-20T04:22:19.113Z,16.00
2023-04-20T04:24:48.212Z,17.10
2023-04-20T04:27:17.682Z,17.70
2023-04-20T04:29:46.823Z,14.90
2023-04-20T04:32:15.409Z,18.90
2023-04-20T04:34:44.019Z,21.80
2023-04-20T04:37:12.477Z,17.60
2023-04-20T04:39:40.992Z,14.30
2023-04-20T04:42:09.322Z,22.30
2023-04-20T04:44:39.479Z,22.10
2023-04-20T04:47:08.991Z,14.50
2023-04-20T04:49:37.457Z,19.80
2023-04-20T04:52:05.935Z,24.30
2023-04-20T04:54:34.184Z,23.00
2023-04-20T04:57:02.660Z,20.20
2023-04-20T04:59:31.017Z,21.30
2023-04-20T05:01:59.362Z,21.50
2023-04-20T05:04:27.816Z,23.60
2023-04-20T05:06:56.592Z,21.70
2023-04-20T05:09:24.960Z,18.70
2023-04-20T05:11:53.893Z,23.40
2023-04-20T05:14:22.119Z,19.50
2023-04-20T05:16:51.066Z,21.10
2023-04-20T05:19:19.934Z,16.80
2023-04-20T05:21:48.285Z,18.50
2023-04-20T05:24:17.070Z,20.20
2023-04-20T05:26:46.114Z,18.60
2023-04-20T05:29:15.385Z,20.10
2023-04-20T05:31:44.844Z,23.00
2023-04-20T05:34:13.380Z,20.20
2023-04-20T05:36:43.158Z,20.60
2023-04-20T05:39:11.357Z,19.10
2023-04-20T05:41:40.181Z,16.00
2023-04-20T05:44:08.589Z,21.70
2023-04-20T05:46:37.024Z,19.80
2023-04-20T05:49:05.840Z,26.80
2023-04-20T05:51:34.129Z,19.90
2023-04-20T05:54:02.836Z,19.70
2023-04-20T05:56:31.486Z,18.30
2023-04-20T05:59:00.563Z,21.90
2023-04-20T06:01:28.888Z,29.40
2023-04-20T06:03:57.489Z,17.50
2023-04-20T06:06:27.801Z,19.60
2023-04-20T06:08:57.514Z,22.00
2023-04-20T06:11:26.221Z,15.60
2023-04-20T06:13:54.528Z,14.80
2023-04-20T06:16:22.946Z,17.20
2023-04-20T06:18:51.831Z,13.20
2023-04-20T06:21:20.228Z,16.70
2023-04-20T06:23:48.754Z,13.60
2023-04-20T06:26:17.293Z,13.40
2023-04-20T06:28:47.899Z,15.40
2023-04-20T06:31:16.415Z,21.20
2023-04-20T06:33:44.823Z,16.10
2023-04-20T06:36:13.353Z,11.30
2023-04-20T06:38:41.735Z,12.80
2023-04-20T06:41:10.061Z,11.80
2023-04-20T06:43:38.601Z,15.80
2023-04-20T06:46:07.530Z,19.50
2023-04-20T06:48:36.144Z,18.80
2023-04-20T06:51:04.922Z,15.70
2023-04-20T06:53:33.323Z,17.70
2023-04-20T06:56:02.277Z,13.00
2023-04-20T06:58:30.752Z,12.10
2023-04-20T07:00:59.121Z,12.50
2023-04-20T07:03:27.497Z,16.20
2023-04-20T07:05:55.922Z,14.80
2023-04-20T07:08:24.488Z,14.60
2023-04-20T07:10:52.768Z,14.70
2023-04-20T07:13:21.187Z,16.70
2023-04-20T07:15:49.884Z,14.20
2023-04-20T07:18:18.469Z,15.20
2023-04-20T07:20:46.832Z,16.50
2023-04-20T07:23:15.089Z,12.90
2023-04-20T07:25:43.361Z,15.80
2023-04-20T07:28:11.926Z,19.20
2023-04-20T07:30:40.238Z,14.80
2023-04-20T07:33:10.533Z,16.80
2023-04-20T07:35:38.962Z,19.50
2023-04-20T07:38:07.317Z,21.90
2023-04-20T07:40:35.835Z,15.40
2023-04-20T07:43:04.376Z,17.20
2023-04-20T07:45:33.130Z,20.70
2023-04-20T07:48:01.956Z,21.00
2023-04-20T07:50:30.678Z,16.00
2023-04-20T07:52:59.019Z,20.10
2023-04-20T07:55:27.403Z,20.40
2023-04-20T07:57:57.079Z,12.10
2023-04-20T08:00:26.205Z,19.30
2023-04-20T08:02:54.665Z,21.80
2023-04-20T08:05:25.899Z,15.30
2023-04-20T08:07:54.717Z,19.70
2023-04-20T08:10:23.356Z,16.30
2023-04-20T08:12:53.190Z,17.20
2023-04-20T08:15:21.641Z,17.50
2023-04-20T08:17:50.235Z,16.20
2023-04-20T08:20:19.014Z,19.30
2023-04-20T08:22:48.708Z,7.40
2023-04-20T08:25:17.595Z,23.40
2023-04-20T08:27:46.120Z,23.00
2023-04-20T08:30:16.979Z,17.80
2023-04-20T08:32:45.365Z,19.30
2023-04-20T08:35:14.132Z,17.10
2023-04-20T08:37:42.779Z,14.20
2023-04-20T08:40:12.587Z,14.70
2023-04-20T08:42:40.958Z,17.30
2023-04-20T08:45:10.082Z,14.00
2023-04-20T08:47:39.068Z,12.10
2023-04-20T08:50:10.446Z,16.80
2023-04-20T08:52:39.428Z,15.20
2023-04-20T08:55:08.263Z,11.30
2023-04-20T08:57:36.883Z,13.30
2023-04-20T09:00:13.448Z,9.10
2023-04-20T09:02:52.926Z,11.10
2023-04-20T09:05:28.858Z,16.90
2023-04-20T09:07:59.669Z,23.80
2023-04-20T09:10:40.040Z,13.00
2023-04-20T09:13:08.770Z,12.20
2023-04-20T09:15:37.161Z,10.10
2023-04-20T09:18:15.493Z,14.60
2023-04-20T09:20:44.228Z,12.70
2023-04-20T09:23:13.487Z,21.30
2023-04-20T09:25:43.100Z,16.40
2023-04-20T09:28:12.714Z,10.50
2023-04-20T09:30:43.174Z,13.60
2023-04-20T09:33:13.812Z,17.30
2023-04-20T09:35:43.288Z,14.80
2023-04-20T09:38:15.694Z,12.00
2023-04-20T09:40:44.680Z,14.50
2023-04-20T09:43:17.728Z,8.90
2023-04-20T09:45:46.639Z,8.10
2023-04-20T09:48:18.442Z,12.10
2023-04-20T09:50:50.022Z,8.00
2023-04-20T09:53:20.013Z,9.70
2023-04-20T09:55:49.783Z,12.30
2023-04-20T09:58:19.814Z,16.50
2023-04-20T10:00:48.423Z,13.40
2023-04-20T10:03:18.066Z,9.60
2023-04-20T10:05:47.194Z,7.30
2023-04-20T10:08:16.517Z,6.20
2023-04-20T10:10:46.894Z,9.40
2023-04-20T10:13:15.521Z,7.10
2023-04-20T10:15:44.097Z,7.80
2023-04-20T10:18:20.279Z,2.70
2023-04-20T10:20:49.626Z,8.40
2023-04-20T10:23:19.416Z,4.00
2023-04-20T10:25:58.459Z,6.60
2023-04-20T10:28:39.759Z,8.70
2023-04-20T10:31:12.416Z,5.20
2023-04-20T10:33:53.334Z,6.10
2023-04-20T10:36:27.933Z,5.70
2023-04-20T10:38:56.439Z,8.50
2023-04-20T10:41:25.121Z,3.80
2023-04-20T10:43:53.442Z,5.40
2023-04-20T10:46:23.085Z,5.00
2023-04-20T10:48:56.092Z,9.60
2023-04-20T10:51:25.568Z,7.40
2023-04-20T10:54:01.265Z,6.50
2023-04-20T10:56:38.284Z,5.00
2023-04-20T10:59:11.225Z,16.00
2023-04-20T11:01:40.846Z,9.10
2023-04-20T11:04:10.248Z,10.30
2023-04-20T11:06:39.628Z,14.10
2023-04-20T11:09:19.330Z,6.60
2023-04-20T11:11:59.517Z,10.60
2023-04-20T11:14:27.998Z,4.40
2023-04-20T11:16:56.605Z,13.00
2023-04-20T11:19:26.702Z,8.90
2023-04-20T11:21:55.355Z,5.80
2023-04-20T11:24:24.805Z,9.80
2023-04-20T11:26:54.929Z,5.40
2023-04-20T11:29:31.281Z,6.30
2023-04-20T11:32:01.116Z,10.00
2023-04-20T11:34:30.073Z,7.60
2023-04-20T11:37:04.512Z,4.20
2023-04-20T11:39:33.029Z,6.90
2023-04-20T11:42:01.484Z,7.70
2023-04-20T11:44:30.169Z,5.00
2023-04-20T11:46:59.155Z,4.50
2023-04-20T11:49:33.439Z,11.60
2023-04-20T11:52:02.983Z,8.60
2023-04-20T11:54:33.553Z,7.00
2023-04-20T11:57:02.338Z,5.60
2023-04-20T11:59:30.762Z,5.00
2023-04-20T12:02:02.120Z,12.80
2023-04-20T12:04:30.963Z,6.50
2023-04-20T12:06:59.789Z,6.40
2023-04-20T12:09:29.887Z,4.50
2023-04-20T12:11:58.515Z,4.90
2023-04-20T12:14:27.270Z,9.30
2023-04-20T12:16:57.469Z,3.50
2023-04-20T12:19:32.434Z,9.00
2023-04-20T12:22:00.935Z,9.30
2023-04-20T12:24:29.371Z,7.40
2023-04-20T12:27:01.347Z,6.70
2023-04-20T12:29:32.450Z,9.20
2023-04-20T12:32:00.970Z,3.30
2023-04-20T12:34:30.788Z,8.90
2023-04-20T12:37:00.514Z,6.60
2023-04-20T12:39:28.805Z,9.20
2023-04-20T12:41:57.496Z,6.50
2023-04-20T12:44:26.169Z,4.50
2023-04-20T12:46:54.587Z,10.70
2023-04-20T12:49:23.012Z,5.90
2023-04-20T12:51:51.366Z,4.50
2023-04-20T12:54:20.139Z,3.30
2023-04-20T12:56:48.626Z,6.00
2023-04-20T12:59:17.058Z,5.90
2023-04-20T13:01:45.543Z,6.30
2023-04-20T13:04:15.640Z,5.50
2023-04-20T13:06:44.339Z,11.20
2023-04-20T13:09:13.006Z,4.10
2023-04-20T13:11:44.093Z,4.60
2023-04-20T13:14:12.513Z,5.90
2023-04-20T13:16:41.144Z,9.60
2023-04-20T13:19:09.562Z,5.60
2023-04-20T13:21:38.308Z,5.00
2023-04-20T13:24:07.479Z,5.90
2023-04-20T13:26:36.230Z,3.60
2023-04-20T13:29:04.669Z,11.30
2023-04-20T13:31:33.709Z,7.90
2023-04-20T13:34:02.150Z,15.10
2023-04-20T13:36:31.677Z,3.40
2023-04-20T13:39:00.557Z,5.50
2023-04-20T13:41:29.206Z,3.60
2023-04-20T13:44:00.011Z,10.00
2023-04-20T13:46:28.579Z,4.90
2023-04-20T13:48:57.191Z,7.00
2023-04-20T13:51:26.650Z,5.10
2023-04-20T13:53:54.952Z,4.20
2023-04-20T13:56:23.371Z,8.80
2023-04-20T13:58:51.831Z,6.60
2023-04-20T14:01:20.321Z,7.50
2023-04-20T14:03:48.704Z,5.80
2023-04-20T14:06:17.162Z,6.30
2023-04-20T14:08:45.492Z,4.80
2023-04-20T14:11:13.838Z,4.80
2023-04-20T14:13:43.679Z,5.60
2023-04-20T14:16:13.766Z,6.30
2023-04-20T14:18:42.197Z,7.50
2023-04-20T14:21:10.788Z,3.50
2023-04-20T14:23:39.303Z,6.40
2023-04-20T14:26:07.532Z,11.20
2023-04-20T14:28:36.246Z,8.70
2023-04-20T14:31:05.099Z,5.30
2023-04-20T14:33:33.426Z,6.40
2023-04-20T14:36:01.749Z,5.60
2023-04-20T14:38:30.510Z,7.30
2023-04-20T14:40:59.546Z,4.50
2023-04-20T14:43:27.836Z,4.80
2023-04-20T14:45:58.025Z,3.70
2023-04-20T14:48:26.771Z,6.20
2023-04-20T14:50:55.232Z,5.50
2023-04-20T14:53:23.948Z,4.20
2023-04-20T14:55:52.373Z,5.80
2023-04-20T14:58:20.816Z,5.50
2023-04-20T15:00:49.173Z,8.80
2023-04-20T15:03:18.209Z,5.50
2023-04-20T15:05:47.173Z,12.30
2023-04-20T15:08:15.755Z,13.30
2023-04-20T15:10:44.390Z,5.50
2023-04-20T15:13:13.676Z,6.30
2023-04-20T15:18:16.214Z,6.50
2023-04-20T15:20:45.105Z,4.60
2023-04-20T15:23:13.447Z,6.00
2023-04-20T15:25:42.092Z,5.50
2023-04-20T15:28:10.798Z,5.30
2023-04-20T15:30:39.203Z,5.40
2023-04-20T15:33:09.194Z,6.20
2023-04-20T15:35:37.569Z,7.20
2023-04-20T15:38:05.819Z,7.10
2023-04-20T15:40:34.697Z,4.60
2023-04-20T15:43:03.655Z,9.30
2023-04-20T15:45:32.035Z,9.10
2023-04-20T15:48:00.699Z,7.40
2023-04-20T15:50:29.016Z,7.50
2023-04-20T15:52:57.227Z,5.00
2023-04-20T15:55:26.432Z,5.60
2023-04-20T15:57:56.619Z,6.70
2023-04-20T16:00:25.442Z,8.90
2023-04-20T16:02:53.984Z,8.10
2023-04-20T16:05:22.781Z,5.90
2023-04-20T16:07:51.227Z,8.70
2023-04-20T16:10:19.821Z,5.30
2023-04-20T16:12:48.242Z,6.20
2023-04-20T16:15:17.631Z,7.10
2023-04-20T16:17:47.000Z,6.40
2023-04-20T16:20:15.648Z,9.00
2023-04-20T16:22:44.097Z,7.90
2023-04-20T16:25:22.081Z,11.50
2023-04-20T16:27:50.757Z,7.60
2023-04-20T16:30:19.579Z,9.60
2023-04-20T16:32:49.018Z,6.20
2023-04-20T16:35:17.681Z,7.10
2023-04-20T16:37:46.452Z,8.30
2023-04-20T16:40:15.079Z,8.80
2023-04-20T16:42:43.531Z,8.10
2023-04-20T16:45:12.119Z,6.00
2023-04-20T16:47:40.832Z,13.20
2023-04-20T16:50:11.891Z,11.50
2023-04-20T16:52:40.445Z,15.60
2023-04-20T16:55:10.022Z,7.00
2023-04-20T16:57:38.390Z,13.40
2023-04-20T17:00:10.290Z,8.80
2023-04-20T17:02:38.900Z,18.00
2023-04-20T17:05:08.732Z,7.90
2023-04-20T17:07:37.141Z,7.60
2023-04-20T17:10:07.160Z,9.40
2023-04-20T17:12:35.691Z,10.50
2023-04-20T17:15:04.807Z,8.90
2023-04-20T17:17:34.329Z,8.40
2023-04-20T17:20:05.764Z,10.20
2023-04-20T17:22:34.814Z,12.10
2023-04-20T17:25:05.800Z,9.70
2023-04-20T17:27:36.025Z,10.60
2023-04-20T17:30:06.030Z,13.70
2023-04-20T17:32:34.435Z,10.10
2023-04-20T17:35:03.897Z,13.30
2023-04-20T17:37:32.337Z,9.10
2023-04-20T17:40:00.937Z,14.20
2023-04-20T17:42:29.618Z,8.80
2023-04-20T17:44:57.998Z,10.70
2023-04-20T17:47:27.825Z,8.40
2023-04-20T17:49:56.293Z,10.50
2023-04-20T17:52:24.567Z,9.80
2023-04-20T17:54:53.812Z,8.70
2023-04-20T17:57:22.559Z,13.30
2023-04-20T17:59:50.844Z,11.70
2023-04-20T18:02:19.510Z,8.40
2023-04-20T18:04:48.462Z,10.00
2023-04-20T18:07:17.931Z,13.60
2023-04-20T18:09:46.129Z,10.00
2023-04-20T18:12:14.865Z,9.40
2023-04-20T18:14:43.522Z,9.40
2023-04-20T18:17:11.816Z,10.70
2023-04-20T18:19:40.689Z,13.10
2023-04-20T18:22:09.434Z,9.80
2023-04-20T18:24:37.982Z,8.00
2023-04-20T18:27:06.371Z,9.10
2023-04-20T18:29:35.286Z,20.40
2023-04-20T18:32:04.067Z,9.50
2023-04-20T18:34:33.128Z,9.10
2023-04-20T18:37:01.394Z,10.80
2023-04-20T18:39:30.042Z,11.80
2023-04-20T18:41:58.568Z,10.80
2023-04-20T18:44:28.671Z,12.40
2023-04-20T18:46:57.785Z,10.60
2023-04-20T18:49:26.265Z,12.50
2023-04-20T18:51:54.663Z,9.60
2023-04-20T18:54:23.237Z,12.50
2023-04-20T18:56:54.070Z,16.80
2023-04-20T18:59:24.106Z,24.20
2023-04-20T19:01:52.969Z,19.10
2023-04-20T19:04:21.898Z,17.20
2023-04-20T19:06:50.440Z,15.80
2023-04-20T19:09:19.459Z,25.20
2023-04-20T19:11:48.647Z,14.50
2023-04-20T19:14:17.178Z,19.00
2023-04-20T19:16:45.990Z,19.20
2023-04-20T19:19:15.771Z,20.50
2023-04-20T19:21:44.120Z,15.90
2023-04-20T19:24:12.673Z,23.50
2023-04-20T19:26:41.063Z,20.90
2023-04-20T19:29:11.702Z,20.80
2023-04-20T19:31:41.486Z,19.80
2023-04-20T19:34:12.756Z,25.90
2023-04-20T19:36:41.934Z,16.60
2023-04-20T19:39:10.875Z,17.60
2023-04-20T19:41:39.396Z,17.20
2023-04-20T19:44:09.924Z,19.00
2023-04-20T19:46:40.027Z,18.30
2023-04-20T19:49:08.793Z,22.90
2023-04-20T19:51:38.645Z,31.10
2023-04-20T19:54:06.997Z,19.50
2023-04-20T19:56:36.612Z,24.10
2023-04-20T19:59:05.226Z,26.50
2023-04-20T20:01:33.557Z,29.10
2023-04-20T20:04:02.285Z,21.40
2023-04-20T20:06:31.557Z,17.40
2023-04-20T20:09:00.010Z,17.80
2023-04-20T20:11:28.834Z,21.80
2023-04-20T20:13:57.163Z,21.50
2023-04-20T20:16:27.529Z,19.40
2023-04-20T20:18:56.176Z,19.30
2023-04-20T20:21:24.533Z,18.20
2023-04-20T20:23:52.879Z,24.60
2023-04-20T20:26:21.681Z,17.00
2023-04-20T20:28:49.995Z,17.70
2023-04-20T20:31:18.669Z,18.30
2023-04-20T20:33:48.282Z,23.00
2023-04-20T20:36:17.246Z,21.00
2023-04-20T20:38:45.819Z,20.80
2023-04-20T20:41:15.721Z,20.10
2023-04-20T20:43:45.120Z,19.30
2023-04-20T20:46:13.803Z,20.70
2023-04-20T20:48:42.439Z,24.60
2023-04-20T20:51:11.147Z,20.00
2023-04-20T20:53:40.558Z,25.20
2023-04-20T20:56:08.972Z,16.90
2023-04-20T20:58:37.281Z,18.40
2023-04-20T21:01:06.199Z,19.20
2023-04-20T21:03:34.967Z,16.70
2023-04-20T21:06:03.778Z,24.10
2023-04-20T21:08:32.250Z,28.80
2023-04-20T21:11:00.691Z,24.10
2023-04-20T21:13:28.948Z,26.30
2023-04-20T21:15:57.761Z,23.20
2023-04-20T21:18:26.492Z,22.30
2023-04-20T21:20:54.834Z,22.30
2023-04-20T21:23:23.149Z,22.90
2023-04-20T21:25:51.835Z,22.40
2023-04-20T21:28:20.112Z,17.90
2023-04-20T21:30:48.469Z,18.70
2023-04-20T21:33:16.975Z,19.20
2023-04-20T21:35:45.520Z,19.70
2023-04-20T21:38:14.560Z,22.80
2023-04-20T21:40:43.226Z,22.50
2023-04-20T21:43:11.602Z,17.70
2023-04-20T21:45:40.121Z,21.30
2023-04-20T21:48:08.522Z,18.30
2023-04-20T21:50:37.940Z,21.80
2023-04-20T21:53:06.525Z,16.90
2023-04-20T21:55:35.386Z,26.40
2023-04-20T21:58:03.659Z,22.70
2023-04-20T22:00:32.185Z,19.40
2023-04-20T22:03:00.877Z,20.10
2023-04-20T22:05:29.341Z,15.40
2023-04-20T22:07:57.715Z,20.50
2023-04-20T22:10:26.527Z,22.10
2023-04-20T22:12:54.787Z,19.50
2023-04-20T22:15:26.970Z,24.30
2023-04-20T22:17:59.938Z,17.90
2023-04-20T22:20:28.541Z,21.70
2023-04-20T22:22:57.106Z,17.20
2023-04-20T22:25:25.589Z,15.40
2023-04-20T22:27:53.940Z,14.60
2023-04-20T22:30:22.309Z,13.70
2023-04-20T22:32:50.726Z,18.00
2023-04-20T22:35:19.269Z,20.80
2023-04-20T22:37:47.676Z,15.70
2023-04-20T22:40:16.259Z,13.00
2023-04-20T22:42:44.730Z,15.10
2023-04-20T22:45:13.044Z,20.00
2023-04-20T22:47:41.555Z,13.50
2023-04-20T22:50:11.805Z,14.50
2023-04-20T22:52:41.075Z,18.60
2023-04-20T22:55:10.927Z,17.80
2023-04-20T22:57:39.382Z,19.20
2023-04-20T23:00:09.991Z,16.50
2023-04-20T23:02:38.490Z,15.10
2023-04-20T23:05:09.102Z,13.40
2023-04-20T23:07:38.934Z,12.70
2023-04-20T23:10:11.156Z,12.90
2023-04-20T23:12:39.555Z,16.70
2023-04-20T23:15:10.200Z,14.60
2023-04-20T23:17:38.693Z,16.00
2023-04-20T23:20:10.406Z,14.70
2023-04-20T23:22:38.802Z,15.00
2023-04-20T23:25:09.008Z,15.60
2023-04-20T23:27:37.723Z,15.80
2023-04-20T23:30:09.222Z,13.10
2023-04-20T23:32:37.468Z,20.50
2023-04-20T23:35:07.263Z,14.00
2023-04-20T23:37:35.617Z,15.30
2023-04-20T23:40:06.598Z,13.60
2023-04-20T23:42:36.803Z,11.90
2023-04-20T23:45:06.952Z,15.90
2023-04-20T23:47:35.622Z,16.50
2023-04-20T23:50:04.603Z,13.90
2023-04-20T23:52:32.837Z,12.30
2023-04-20T23:55:01.101Z,21.10
2023-04-20T23:57:29.841Z,13.20
2023-04-20T23:59:58.165Z,19.00
